KASX

John F Kennedy Memorial Airport

Ashland, Wisconsin, USA
METAR KASX 172153Z AUTO 04005KT 10SM CLR 23/13 A3015 RMK AO2 SLP210 T02280128
Observed Flight Rules
Jul-17 @ 21:53 UTC (59 minutes ago) Visual Flight Rules
Wind Visibility Clouds
40° at 5 knots 10 miles
  • Clear skies
Temperatures Readings
Current 23°C / 73°F
Dewpoint 13°C / 55°F
Humidity 53%
Altimeter 30.15" Hg
Pressure 1021 hPa
Elevation 251
METAR KASX 172153Z AUTO 04005KT 10SM CLR 23/13 A3015 RMK AO2 SLP210 T02280128
Observed Flight Rules
Jul-17 @ 21:53 UTC
(59 minutes ago)
VFR
Wind Visibility
40° at 5 knots 10 miles
Clouds
  • Clear skies
Temperature Dewpoint
23°C / 73°F 13°C / 55°F
Humidity Altimeter Pressure
53% 30.15" Hg 1021 hPa